Terminal Aerodrome Forecast
Issued by NWS

Home | Current Version | Previous Version | Text Only | Print | Product List | Glossary On
Versions: 1 2 3 4 5 6 7 8 9 10 11 12 13 14 15
000
FTUS42 KTBW 240520
TAFRSW
TAF
KRSW 240520Z 2406/2506 31010G18KT P6SM SKC
     FM240900 30006KT P6SM SKC
     FM241600 29010KT P6SM SKC
     FM250200 28003KT P6SM FEW250=

USA.gov is the U.S. government's official web portal to all federal, state and local government web resources and services.